createdAt,value
2018-03-17T00:02:06.364Z,98.75
2018-03-17T00:04:36.169Z,98.22
2018-03-17T00:07:05.981Z,97.75
2018-03-17T00:09:35.819Z,97.56
2018-03-17T00:12:05.613Z,97.51
2018-03-17T00:14:35.407Z,97.51
2018-03-17T00:17:05.194Z,97.61
2018-03-17T00:19:34.999Z,97.63
2018-03-17T00:22:04.844Z,97.84
2018-03-17T00:24:34.427Z,98.04
2018-03-17T00:27:03.976Z,98.35
2018-03-17T00:29:33.805Z,98.76
2018-03-17T00:32:03.630Z,99.17
2018-03-17T00:34:33.443Z,99.48
2018-03-17T00:37:03.259Z,99.71
2018-03-17T00:39:33.063Z,99.94
2018-03-17T00:42:02.901Z,100.00
2018-03-17T00:44:32.740Z,100.00
2018-03-17T00:47:02.540Z,100.00
2018-03-17T00:49:32.338Z,100.00
2018-03-17T00:52:02.131Z,100.00
2018-03-17T00:54:31.940Z,100.00
2018-03-17T00:57:01.791Z,100.00
2018-03-17T00:59:31.611Z,100.00
2018-03-17T01:02:01.419Z,100.00
2018-03-17T01:04:31.220Z,100.00
2018-03-17T01:07:01.245Z,100.00
2018-03-17T01:09:31.273Z,100.00
2018-03-17T01:12:01.137Z,100.00
2018-03-17T01:14:30.787Z,100.00
2018-03-17T01:17:00.436Z,100.00
2018-03-17T01:19:30.466Z,100.00
2018-03-17T01:22:00.284Z,100.00
2018-03-17T01:24:30.101Z,100.00
2018-03-17T01:27:00.220Z,100.00
2018-03-17T01:29:30.156Z,100.00
2018-03-17T01:31:59.973Z,100.00
2018-03-17T01:34:29.829Z,100.00
2018-03-17T01:36:59.426Z,100.00
2018-03-17T01:39:29.217Z,100.00
2018-03-17T01:41:59.073Z,100.00
2018-03-17T01:44:28.970Z,100.00
2018-03-17T01:46:58.759Z,100.00
2018-03-17T01:49:28.593Z,100.00
2018-03-17T01:51:58.418Z,100.00
2018-03-17T01:54:32.764Z,100.00
2018-03-17T01:57:02.602Z,100.00
2018-03-17T01:59:33.177Z,100.00
2018-03-17T02:02:03.020Z,100.00
2018-03-17T02:04:32.844Z,100.00
2018-03-17T02:07:02.764Z,100.00
2018-03-17T02:09:32.610Z,100.00
2018-03-17T02:12:02.485Z,100.00
2018-03-17T02:14:33.394Z,100.00
2018-03-17T02:17:03.037Z,100.00
2018-03-17T02:19:32.850Z,100.00
2018-03-17T02:22:02.665Z,100.00
2018-03-17T02:24:32.276Z,100.00
2018-03-17T02:27:02.106Z,100.00
2018-03-17T02:29:31.914Z,100.00
2018-03-17T02:32:01.733Z,100.00
2018-03-17T02:34:31.574Z,100.00
2018-03-17T02:37:01.446Z,100.00
2018-03-17T02:39:31.288Z,100.00
2018-03-17T02:42:01.118Z,100.00
2018-03-17T02:44:30.942Z,100.00
2018-03-17T02:47:00.538Z,100.00
2018-03-17T02:49:30.368Z,100.00
2018-03-17T02:52:00.180Z,100.00
2018-03-17T02:54:30.033Z,100.00
2018-03-17T02:56:59.858Z,100.00
2018-03-17T02:59:29.736Z,100.00
2018-03-17T03:01:59.590Z,100.00
2018-03-17T03:04:29.405Z,100.00
2018-03-17T03:06:59.565Z,100.00
2018-03-17T03:09:29.552Z,100.00
2018-03-17T03:12:00.349Z,100.00
2018-03-17T03:14:30.212Z,100.00
2018-03-17T03:17:00.012Z,100.00
2018-03-17T03:19:29.907Z,100.00
2018-03-17T03:21:59.714Z,100.00
2018-03-17T03:24:29.532Z,100.00
2018-03-17T03:26:59.390Z,100.00
2018-03-17T03:29:29.215Z,100.00
2018-03-17T03:31:59.041Z,100.00
2018-03-17T03:34:28.875Z,100.00
2018-03-17T03:36:58.696Z,100.00
2018-03-17T03:39:28.565Z,100.00
2018-03-17T03:41:58.381Z,100.00
2018-03-17T03:44:28.209Z,100.00
2018-03-17T03:46:58.034Z,100.00
2018-03-17T03:49:27.841Z,100.00
2018-03-17T03:51:57.712Z,100.00
2018-03-17T03:54:27.525Z,100.00
2018-03-17T03:56:57.346Z,100.00
2018-03-17T03:59:27.174Z,100.00
2018-03-17T04:01:57.007Z,100.00
2018-03-17T04:04:26.826Z,100.00
2018-03-17T04:06:56.657Z,100.00
2018-03-17T04:09:26.490Z,100.00
2018-03-17T04:11:56.325Z,100.00
2018-03-17T04:14:26.137Z,100.00
2018-03-17T04:16:55.950Z,100.00
2018-03-17T04:19:25.760Z,100.00
2018-03-17T04:21:55.393Z,100.00
2018-03-17T04:24:25.091Z,100.00
2018-03-17T04:26:54.944Z,100.00
2018-03-17T04:29:24.575Z,100.00
2018-03-17T04:31:54.686Z,100.00
2018-03-17T04:34:24.623Z,100.00
2018-03-17T04:36:54.814Z,100.00
2018-03-17T04:39:24.636Z,100.00
2018-03-17T04:41:54.509Z,100.00
2018-03-17T04:44:24.318Z,100.00
2018-03-17T04:46:54.203Z,100.00
2018-03-17T04:49:24.001Z,100.00
2018-03-17T04:51:53.818Z,100.00
2018-03-17T04:54:23.660Z,100.00
2018-03-17T04:56:53.454Z,100.00
2018-03-17T04:59:23.030Z,100.00
2018-03-17T05:01:52.856Z,100.00
2018-03-17T05:04:22.540Z,100.00
2018-03-17T05:06:52.381Z,100.00
2018-03-17T05:09:22.198Z,100.00
2018-03-17T05:11:52.022Z,100.00
2018-03-17T05:14:21.874Z,100.00
2018-03-17T05:16:51.674Z,100.00
2018-03-17T05:19:21.533Z,100.00
2018-03-17T05:21:51.339Z,100.00
2018-03-17T05:24:21.213Z,99.77
2018-03-17T05:26:51.008Z,99.43
2018-03-17T05:29:22.161Z,99.42
2018-03-17T05:31:51.988Z,99.55
2018-03-17T05:34:21.808Z,98.79
2018-03-17T05:36:55.674Z,98.16
2018-03-17T05:39:25.288Z,99.14
2018-03-17T05:41:55.178Z,98.72
2018-03-17T05:44:25.019Z,98.53
2018-03-17T05:46:54.849Z,98.32
2018-03-17T05:49:24.667Z,97.95
2018-03-17T05:51:55.188Z,97.08
2018-03-17T05:54:25.016Z,96.65
2018-03-17T05:56:54.820Z,96.06
2018-03-17T05:59:24.449Z,95.69
2018-03-17T06:01:54.332Z,95.64
2018-03-17T06:04:24.196Z,95.80
2018-03-17T06:06:54.067Z,95.75
2018-03-17T06:09:23.896Z,95.32
2018-03-17T06:11:53.767Z,94.80
2018-03-17T06:14:23.610Z,94.82
2018-03-17T06:16:53.441Z,94.53
2018-03-17T06:19:23.554Z,94.81
2018-03-17T06:21:53.390Z,94.41
2018-03-17T06:24:23.379Z,93.87
2018-03-17T06:26:53.307Z,93.90
2018-03-17T06:29:23.118Z,93.34
2018-03-17T06:31:52.986Z,94.46
2018-03-17T06:34:23.172Z,94.57
2018-03-17T06:36:53.000Z,94.23
2018-03-17T06:39:22.821Z,94.67
2018-03-17T06:41:52.657Z,95.21
2018-03-17T06:44:22.461Z,95.25
2018-03-17T06:46:52.443Z,94.73
2018-03-17T06:49:22.664Z,94.90
2018-03-17T06:51:52.448Z,94.64
2018-03-17T06:54:22.710Z,95.43
2018-03-17T06:56:53.139Z,94.67
2018-03-17T06:59:22.962Z,94.36
2018-03-17T07:01:56.928Z,94.66
2018-03-17T07:04:26.725Z,95.70
2018-03-17T07:06:56.560Z,94.39
2018-03-17T07:09:26.945Z,94.31
2018-03-17T07:11:56.771Z,93.97
2018-03-17T07:14:26.662Z,93.92
2018-03-17T07:16:57.121Z,94.25
2018-03-17T07:19:26.980Z,93.84
2018-03-17T07:21:56.892Z,94.72
2018-03-17T07:24:26.704Z,94.61
2018-03-17T07:26:56.528Z,93.00
2018-03-17T07:29:26.351Z,93.20
2018-03-17T07:31:56.689Z,93.23
2018-03-17T07:34:26.487Z,93.12
2018-03-17T07:36:56.380Z,92.76
2018-03-17T07:39:26.274Z,93.21
2018-03-17T07:41:56.107Z,93.58
2018-03-17T07:44:25.919Z,93.33
2018-03-17T07:46:55.775Z,93.17
2018-03-17T07:49:25.604Z,92.59
2018-03-17T07:51:55.594Z,92.50
2018-03-17T07:54:25.425Z,92.50
2018-03-17T07:56:55.918Z,93.17
2018-03-17T07:59:25.728Z,92.24
2018-03-17T08:01:55.551Z,91.83
2018-03-17T08:04:25.686Z,91.11
2018-03-17T08:06:55.497Z,90.79
2018-03-17T08:09:25.765Z,90.81
2018-03-17T08:11:55.596Z,90.44
2018-03-17T08:14:25.228Z,90.90
2018-03-17T08:16:55.315Z,90.31
2018-03-17T08:19:25.132Z,89.23
2018-03-17T08:21:55.184Z,88.53
2018-03-17T08:24:25.899Z,89.25
2018-03-17T08:26:56.504Z,88.48
2018-03-17T08:29:26.424Z,89.46
2018-03-17T08:31:56.272Z,89.20
2018-03-17T08:34:26.109Z,89.19
2018-03-17T08:36:56.030Z,88.60
2018-03-17T08:39:26.024Z,88.80
2018-03-17T08:42:00.717Z,87.44
2018-03-17T08:44:30.695Z,87.67
2018-03-17T08:47:00.740Z,87.04
2018-03-17T08:49:30.661Z,87.71
2018-03-17T08:52:00.512Z,86.49
2018-03-17T08:54:30.336Z,86.01
2018-03-17T08:57:00.224Z,86.18
2018-03-17T08:59:30.010Z,85.32
2018-03-17T09:01:59.882Z,85.21
2018-03-17T09:04:29.732Z,84.94
2018-03-17T09:06:59.782Z,84.88
2018-03-17T09:09:30.455Z,85.50
2018-03-17T09:12:00.295Z,84.62
2018-03-17T09:14:30.116Z,84.99
2018-03-17T09:16:59.942Z,85.09
2018-03-17T09:19:29.561Z,82.95
2018-03-17T09:21:59.356Z,82.87
2018-03-17T09:24:29.274Z,83.45
2018-03-17T09:26:59.127Z,81.88
2018-03-17T09:29:29.333Z,83.18
2018-03-17T09:31:59.580Z,80.51
2018-03-17T09:34:29.542Z,81.55
2018-03-17T09:36:59.467Z,79.09
2018-03-17T09:39:29.568Z,78.91
2018-03-17T09:41:59.380Z,78.55
2018-03-17T09:44:29.160Z,78.68
2018-03-17T09:46:59.247Z,79.01
2018-03-17T09:49:29.096Z,78.23
2018-03-17T09:51:59.939Z,78.28
2018-03-17T09:54:30.034Z,78.40
2018-03-17T09:57:01.015Z,78.20
2018-03-17T09:59:30.879Z,78.29
2018-03-17T10:02:00.717Z,77.98
2018-03-17T10:04:30.562Z,78.22
2018-03-17T10:07:00.478Z,78.34
2018-03-17T10:09:30.304Z,79.18
2018-03-17T10:12:00.141Z,79.09
2018-03-17T10:14:29.996Z,78.41
2018-03-17T10:16:59.808Z,78.14
2018-03-17T10:19:30.185Z,77.46
2018-03-17T10:22:00.008Z,77.91
2018-03-17T10:24:29.857Z,77.41
2018-03-17T10:26:59.664Z,76.32
2018-03-17T10:29:29.590Z,76.41
2018-03-17T10:31:59.588Z,75.68
2018-03-17T10:34:29.458Z,76.17
2018-03-17T10:36:59.271Z,76.60
2018-03-17T10:39:32.781Z,77.24
2018-03-17T10:42:02.597Z,77.49
2018-03-17T10:44:32.400Z,77.41
2018-03-17T10:47:02.199Z,77.61
2018-03-17T10:49:32.105Z,77.75
2018-03-17T10:52:01.953Z,76.41
2018-03-17T10:54:35.608Z,75.07
2018-03-17T10:57:05.457Z,76.51
2018-03-17T10:59:35.074Z,75.56
2018-03-17T11:02:05.542Z,76.04
2018-03-17T11:04:35.340Z,76.57
2018-03-17T11:07:05.180Z,75.93
2018-03-17T11:09:35.597Z,76.30
2018-03-17T11:12:05.435Z,74.96
2018-03-17T11:14:35.250Z,75.61
2018-03-17T11:17:05.070Z,74.58
2018-03-17T11:19:34.866Z,73.87
2018-03-17T11:22:04.707Z,73.31
2018-03-17T11:24:34.526Z,74.99
2018-03-17T11:27:04.348Z,74.23
2018-03-17T11:29:34.237Z,73.84
2018-03-17T11:32:04.045Z,74.19
2018-03-17T11:34:33.927Z,76.62
2018-03-17T11:37:03.758Z,77.72
2018-03-17T11:39:33.576Z,76.57
2018-03-17T11:42:03.413Z,75.44
2018-03-17T11:44:33.232Z,76.57
2018-03-17T11:47:03.160Z,76.13
2018-03-17T11:49:32.968Z,76.28
2018-03-17T11:52:02.801Z,76.09
2018-03-17T11:54:33.234Z,75.88
2018-03-17T11:57:03.493Z,76.27
2018-03-17T11:59:33.316Z,75.05
2018-03-17T12:02:03.133Z,74.22
2018-03-17T12:04:32.999Z,74.21
2018-03-17T12:07:02.833Z,74.79
2018-03-17T12:09:32.696Z,74.42
2018-03-17T12:12:02.550Z,73.86
2018-03-17T12:14:32.355Z,73.12
2018-03-17T12:17:02.204Z,72.35
2018-03-17T12:19:32.034Z,71.97
2018-03-17T12:22:02.609Z,72.44
2018-03-17T12:24:32.455Z,72.11
2018-03-17T12:27:02.259Z,72.79
2018-03-17T12:29:32.050Z,72.59
2018-03-17T12:32:02.028Z,74.19
2018-03-17T12:34:31.889Z,73.76
2018-03-17T12:37:01.786Z,72.58
2018-03-17T12:39:31.682Z,72.42
2018-03-17T12:42:01.749Z,70.84
2018-03-17T12:44:31.548Z,71.25
2018-03-17T12:47:01.784Z,70.91
2018-03-17T12:49:31.586Z,70.57
2018-03-17T12:52:01.408Z,70.88
2018-03-17T12:54:31.242Z,71.07
2018-03-17T12:57:01.103Z,71.92
2018-03-17T12:59:30.943Z,70.46
2018-03-17T13:02:01.464Z,69.87
2018-03-17T13:04:31.347Z,70.77
2018-03-17T13:07:01.281Z,71.20
2018-03-17T13:09:31.639Z,69.42
2018-03-17T13:12:01.452Z,68.57
2018-03-17T13:14:31.518Z,68.42
2018-03-17T13:17:01.352Z,66.95
2018-03-17T13:19:31.306Z,66.39
2018-03-17T13:22:00.878Z,66.80
2018-03-17T13:24:30.578Z,66.06
2018-03-17T13:27:11.466Z,65.86
2018-03-17T13:29:41.377Z,65.86
2018-03-17T13:35:14.516Z,65.47
2018-03-17T13:37:44.121Z,67.22
2018-03-17T13:40:25.074Z,64.03
2018-03-17T13:42:54.726Z,65.63
2018-03-17T13:45:24.919Z,64.34
2018-03-17T13:47:54.834Z,64.64
2018-03-17T13:50:24.652Z,64.84
2018-03-17T13:52:54.579Z,63.92
2018-03-17T13:55:24.422Z,64.91
2018-03-17T13:57:54.237Z,65.40
2018-03-17T14:00:24.045Z,65.95
2018-03-17T14:02:53.850Z,65.23
2018-03-17T14:05:23.726Z,66.29
2018-03-17T14:07:53.546Z,65.26
2018-03-17T14:10:23.367Z,64.52
2018-03-17T14:12:53.472Z,64.20
2018-03-17T14:15:23.321Z,65.03
2018-03-17T14:17:53.942Z,65.45
2018-03-17T14:20:23.869Z,64.93
2018-03-17T14:22:53.690Z,64.13
2018-03-17T14:25:24.050Z,63.45
2018-03-17T14:27:53.843Z,63.70
2018-03-17T14:30:23.679Z,63.58
2018-03-17T14:32:53.498Z,62.96
2018-03-17T14:35:23.304Z,62.89
2018-03-17T14:37:52.921Z,62.99
2018-03-17T14:40:22.698Z,63.11
2018-03-17T14:42:52.497Z,63.25
2018-03-17T14:45:22.307Z,63.11
2018-03-17T14:47:52.103Z,62.50
2018-03-17T14:50:21.883Z,62.59
2018-03-17T14:52:51.684Z,62.85
2018-03-17T14:55:25.658Z,62.39
2018-03-17T14:57:55.499Z,63.34
2018-03-17T15:00:25.310Z,63.75
2018-03-17T15:02:55.109Z,62.77
2018-03-17T15:05:24.913Z,63.73
2018-03-17T15:07:54.790Z,63.25
2018-03-17T15:10:24.842Z,62.84
2018-03-17T15:12:54.652Z,63.44
2018-03-17T15:15:24.292Z,64.52
2018-03-17T15:17:54.385Z,64.10
2018-03-17T15:20:24.462Z,63.49
2018-03-17T15:22:54.259Z,63.24
2018-03-17T15:25:24.409Z,64.76
2018-03-17T15:27:54.075Z,64.44
2018-03-17T15:30:24.491Z,65.64
2018-03-17T15:32:54.476Z,65.43
2018-03-17T15:35:24.654Z,65.77
2018-03-17T15:37:54.807Z,65.11
2018-03-17T15:40:25.003Z,65.39
2018-03-17T15:42:54.882Z,65.47
2018-03-17T15:45:24.703Z,66.52
2018-03-17T15:47:54.507Z,65.76
2018-03-17T15:50:24.305Z,66.02
2018-03-17T15:52:54.396Z,66.40
2018-03-17T15:55:24.210Z,67.22
2018-03-17T15:57:54.100Z,67.73
2018-03-17T16:00:28.329Z,67.86
2018-03-17T16:02:58.233Z,68.02
2018-03-17T16:05:28.041Z,67.65
2018-03-17T16:07:57.832Z,68.37
2018-03-17T16:10:28.821Z,68.94
2018-03-17T16:12:58.720Z,68.27
2018-03-17T16:15:28.638Z,68.37
2018-03-17T16:17:58.458Z,68.69
2018-03-17T16:20:28.302Z,69.46
2018-03-17T16:22:58.417Z,69.71
2018-03-17T16:25:32.646Z,70.08
2018-03-17T16:28:03.857Z,69.96
2018-03-17T16:30:33.668Z,70.19
2018-03-17T16:33:03.742Z,69.91
2018-03-17T16:35:33.593Z,70.68
2018-03-17T16:38:03.392Z,70.52
2018-03-17T16:40:40.424Z,70.73
2018-03-17T16:43:10.336Z,71.29
2018-03-17T16:45:40.135Z,70.84
2018-03-17T16:48:10.242Z,71.09
2018-03-17T16:50:40.512Z,71.28
2018-03-17T16:53:11.456Z,71.13
2018-03-17T16:55:41.106Z,71.51
2018-03-17T16:58:11.044Z,71.64
2018-03-17T17:00:45.121Z,71.85
2018-03-17T17:03:15.615Z,71.37
2018-03-17T17:05:45.726Z,70.98
2018-03-17T17:08:15.582Z,70.84
2018-03-17T17:10:45.430Z,70.99
2018-03-17T17:13:15.331Z,71.35
2018-03-17T17:15:45.280Z,71.38
2018-03-17T17:18:14.961Z,71.29
2018-03-17T17:20:44.804Z,70.83
2018-03-17T17:23:14.681Z,70.88
2018-03-17T17:25:44.597Z,70.79
2018-03-17T17:28:14.478Z,70.69
2018-03-17T17:30:44.473Z,71.02
2018-03-17T17:33:18.647Z,70.71
2018-03-17T17:35:48.489Z,70.35
2018-03-17T17:38:18.458Z,69.35
2018-03-17T17:40:48.336Z,68.95
2018-03-17T17:43:18.141Z,68.79
2018-03-17T17:45:48.286Z,69.01
2018-03-17T17:48:18.012Z,68.91
2018-03-17T17:50:47.838Z,68.82
2018-03-17T17:53:17.979Z,69.04
2018-03-17T17:55:47.778Z,68.67
2018-03-17T17:58:17.528Z,68.81
2018-03-17T18:00:47.369Z,69.20
2018-03-17T18:03:17.189Z,69.39
2018-03-17T18:05:47.010Z,68.82
2018-03-17T18:08:16.879Z,69.95
2018-03-17T18:10:50.835Z,69.87
2018-03-17T18:13:20.642Z,69.77
2018-03-17T18:15:50.474Z,69.71
2018-03-17T18:18:20.281Z,69.57
2018-03-17T18:20:50.204Z,70.67
2018-03-17T18:23:20.029Z,71.39
2018-03-17T18:25:49.873Z,71.57
2018-03-17T18:28:19.469Z,71.76
2018-03-17T18:30:49.863Z,72.45
2018-03-17T18:33:19.816Z,73.79
2018-03-17T18:35:49.664Z,74.91
2018-03-17T18:38:19.483Z,75.51
2018-03-17T18:40:49.694Z,76.29
2018-03-17T18:43:19.531Z,77.69
2018-03-17T18:45:49.066Z,78.08
2018-03-17T18:48:18.740Z,78.78
2018-03-17T18:50:48.549Z,78.89
2018-03-17T18:53:18.113Z,79.98
2018-03-17T18:55:47.932Z,80.54
2018-03-17T18:58:18.875Z,80.83
2018-03-17T19:00:48.893Z,80.62
2018-03-17T19:03:18.748Z,80.88
2018-03-17T19:05:49.943Z,81.38
2018-03-17T19:08:19.780Z,82.15
2018-03-17T19:10:49.606Z,81.13
2018-03-17T19:13:19.421Z,81.07
2018-03-17T19:15:49.388Z,82.62
2018-03-17T19:18:19.418Z,82.71
2018-03-17T19:20:49.336Z,82.74
2018-03-17T19:23:19.139Z,83.03
2018-03-17T19:25:49.027Z,83.51
2018-03-17T19:28:19.234Z,83.70
2018-03-17T19:30:49.159Z,83.72
2018-03-17T19:33:19.360Z,82.84
2018-03-17T19:35:49.365Z,82.67
2018-03-17T19:38:19.394Z,83.18
2018-03-17T19:40:49.987Z,82.26
2018-03-17T19:43:20.062Z,82.04
2018-03-17T19:45:50.054Z,82.31
2018-03-17T19:48:20.483Z,82.81
2018-03-17T19:50:50.399Z,82.46
2018-03-17T19:53:20.227Z,83.24
2018-03-17T19:55:50.128Z,83.43
2018-03-17T19:58:20.118Z,83.90
2018-03-17T20:00:50.350Z,84.41
2018-03-17T20:03:19.972Z,85.51
2018-03-17T20:05:50.166Z,85.49
2018-03-17T20:08:20.131Z,86.63
2018-03-17T20:10:50.094Z,86.67
2018-03-17T20:13:20.113Z,86.98
2018-03-17T20:15:49.941Z,87.48
2018-03-17T20:18:19.766Z,88.24
2018-03-17T20:20:49.766Z,88.54
2018-03-17T20:23:19.601Z,88.49
2018-03-17T20:25:49.421Z,88.50
2018-03-17T20:28:23.862Z,88.66
2018-03-17T20:30:53.879Z,89.01
2018-03-17T20:33:24.025Z,88.61
2018-03-17T20:35:53.893Z,88.68
2018-03-17T20:38:23.699Z,89.21
2018-03-17T20:40:53.597Z,89.54
2018-03-17T20:43:23.469Z,89.52
2018-03-17T20:45:53.367Z,89.37
2018-03-17T20:48:23.166Z,90.06
2018-03-17T20:50:53.611Z,89.64
2018-03-17T20:53:23.439Z,90.62
2018-03-17T20:55:53.278Z,91.29
2018-03-17T20:58:23.063Z,95.92
2018-03-17T21:00:52.869Z,96.06
2018-03-17T21:03:22.672Z,94.41
2018-03-17T21:05:52.508Z,92.24
2018-03-17T21:08:22.651Z,91.48
2018-03-17T21:10:52.524Z,90.92
2018-03-17T21:13:22.339Z,90.98
2018-03-17T21:15:52.131Z,91.64
2018-03-17T21:18:21.949Z,91.80
2018-03-17T21:20:51.755Z,91.71
2018-03-17T21:23:21.596Z,91.40
2018-03-17T21:25:51.714Z,90.83
2018-03-17T21:28:21.579Z,91.81
2018-03-17T21:30:51.397Z,91.66
2018-03-17T21:33:21.223Z,91.42
2018-03-17T21:35:51.160Z,91.09
2018-03-17T21:38:20.962Z,90.85
2018-03-17T21:40:50.796Z,91.59
2018-03-17T21:43:20.659Z,91.53
2018-03-17T21:45:50.458Z,91.34
2018-03-17T21:48:20.272Z,91.01
2018-03-17T21:50:50.514Z,91.27
2018-03-17T21:53:20.413Z,91.68
2018-03-17T21:55:51.067Z,91.81
2018-03-17T21:58:20.948Z,91.57
2018-03-17T22:00:51.098Z,92.17
2018-03-17T22:03:21.366Z,92.44
2018-03-17T22:05:51.183Z,92.18
2018-03-17T22:08:20.695Z,92.16
2018-03-17T22:10:50.549Z,91.97
2018-03-17T22:13:20.408Z,92.01
2018-03-17T22:15:50.247Z,92.23
2018-03-17T22:18:20.050Z,92.17
2018-03-17T22:20:50.586Z,92.17
2018-03-17T22:23:20.649Z,92.23
2018-03-17T22:25:50.467Z,92.42
2018-03-17T22:28:20.274Z,91.87
2018-03-17T22:30:50.084Z,91.84
2018-03-17T22:33:19.908Z,92.01
2018-03-17T22:35:50.669Z,92.38
2018-03-17T22:38:20.467Z,91.80
2018-03-17T22:40:49.962Z,91.80
2018-03-17T22:43:19.813Z,91.81
2018-03-17T22:45:49.616Z,92.13
2018-03-17T22:48:19.435Z,92.01
2018-03-17T22:50:49.251Z,91.22
2018-03-17T22:53:19.058Z,91.73
2018-03-17T22:55:48.849Z,92.12
2018-03-17T22:58:18.745Z,92.41
2018-03-17T23:00:48.238Z,91.88
2018-03-17T23:03:18.312Z,92.20
2018-03-17T23:05:48.132Z,92.00
2018-03-17T23:08:17.948Z,92.36
2018-03-17T23:10:47.758Z,91.70
2018-03-17T23:13:17.572Z,92.23
2018-03-17T23:15:47.385Z,91.69
2018-03-17T23:18:17.219Z,91.24
2018-03-17T23:20:47.019Z,91.53
2018-03-17T23:23:16.585Z,91.21
2018-03-17T23:25:46.392Z,90.73
2018-03-17T23:28:16.028Z,90.81
2018-03-17T23:30:45.852Z,90.77
2018-03-17T23:33:15.918Z,91.15
2018-03-17T23:35:45.555Z,90.62
2018-03-17T23:38:15.361Z,90.74
2018-03-17T23:40:44.984Z,90.95
2018-03-17T23:43:14.637Z,90.55
2018-03-17T23:45:44.266Z,90.09
2018-03-17T23:48:13.903Z,89.41
2018-03-17T23:50:43.692Z,87.05
2018-03-17T23:53:13.316Z,87.80
2018-03-17T23:55:43.684Z,87.89
2018-03-17T23:58:13.319Z,87.51
